Time;durP1;ratioP1;P1;durP2;ratioP2;P2;SDS_P1;SDS_P2;PMS_P1;PMS_P2;Temp;Humidity;BMP_temperature;BMP_pressure;BME280_temperature;BME280_humidity;BME280_pressure;Samples;Min_cycle;Max_cycle;Signal;HPM_P1;HPM_P2
2024/01/07 00:00:19;;;;;;;15.88;11.57;;;;;;;4.95;79.88;97986.66;4991771;28;102851;-74
2024/01/07 00:02:47;;;;;;;21.27;16.55;;;;;;;4.87;80.16;97984.78;4986944;28;103256;-74
2024/01/07 00:05:15;;;;;;;19.27;14.18;;;;;;;4.89;79.82;97982.03;5001453;28;103415;-74
2024/01/07 00:07:44;;;;;;;17.60;14.20;;;;;;;4.96;79.50;97972.56;4986021;28;102717;-74
2024/01/07 00:10:12;;;;;;;21.50;15.18;;;;;;;4.93;79.70;97978.13;4988727;28;103940;-74
2024/01/07 00:12:40;;;;;;;20.95;15.27;;;;;;;4.91;79.83;97985.31;5003070;28;103223;-74
2024/01/07 00:15:09;;;;;;;15.18;11.32;;;;;;;4.87;79.96;97978.72;4997676;28;103018;-74
2024/01/07 00:17:38;;;;;;;22.48;15.02;;;;;;;4.82;79.73;97981.78;5005786;28;102563;-74
2024/01/07 00:20:14;;;;;;;21.00;15.30;;;;;;;4.79;79.79;97993.41;5004476;28;102951;-74
2024/01/07 00:22:42;;;;;;;16.10;12.17;;;;;;;4.89;80.09;97992.53;5015150;28;103334;-73
2024/01/07 00:25:10;;;;;;;16.60;11.40;;;;;;;4.86;79.72;97982.31;5005766;28;103297;-74
2024/01/07 00:27:44;;;;;;;18.25;11.80;;;;;;;5.04;79.79;97991.00;4999812;28;102900;-63
2024/01/07 00:30:13;;;;;;;15.48;11.63;;;;;;;4.95;79.81;97982.25;5002267;28;103825;-64
2024/01/07 00:32:43;;;;;;;19.10;12.23;;;;;;;4.95;79.38;97981.41;4979507;28;104094;-63
2024/01/07 00:35:14;;;;;;;18.00;12.55;;;;;;;4.85;79.78;97991.13;4977706;28;104195;-63
2024/01/07 00:37:42;;;;;;;14.55;10.88;;;;;;;4.94;79.67;97985.84;4988592;28;102609;-64
2024/01/07 00:40:13;;;;;;;13.55;10.32;;;;;;;4.97;79.67;97996.03;4992044;28;104416;-64
2024/01/07 00:42:41;;;;;;;17.80;11.65;;;;;;;5.09;79.50;97988.75;4981866;28;104181;-64
2024/01/07 00:45:10;;;;;;;16.10;11.88;;;;;;;5.06;78.62;97983.81;4983659;28;103205;-63
2024/01/07 00:47:38;;;;;;;15.25;10.50;;;;;;;5.06;79.32;97983.81;4986638;28;102639;-63
2024/01/07 00:50:08;;;;;;;13.10;9.35;;;;;;;5.01;79.65;97985.25;4991701;28;103850;-63
2024/01/07 00:52:38;;;;;;;16.35;12.18;;;;;;;4.94;79.14;97983.22;4989356;28;104291;-64
2024/01/07 00:55:07;;;;;;;15.05;9.65;;;;;;;4.99;79.36;97990.63;4995420;28;103146;-64
2024/01/07 00:57:35;;;;;;;15.10;10.93;;;;;;;5.11;79.00;97996.50;4985747;28;102753;-63
2024/01/07 01:00:11;;;;;;;16.92;12.07;;;;;;;4.96;79.62;97991.75;5007679;28;103884;-64
2024/01/07 01:02:39;;;;;;;16.90;11.10;;;;;;;5.03;79.35;97989.38;4988260;28;104493;-64
2024/01/07 01:05:09;;;;;;;17.17;12.45;;;;;;;4.98;79.49;97991.63;5001717;28;103329;-64
2024/01/07 01:07:37;;;;;;;15.75;11.23;;;;;;;4.94;79.42;97995.53;4980588;28;102699;-63
2024/01/07 01:10:06;;;;;;;15.10;10.65;;;;;;;4.97;79.51;97990.78;4981814;28;103978;-63
2024/01/07 01:12:34;;;;;;;15.35;11.70;;;;;;;5.08;79.77;97996.78;4980309;28;104203;-64
2024/01/07 01:15:02;;;;;;;25.70;16.42;;;;;;;5.03;79.20;97997.25;5005830;28;103287;-63
2024/01/07 01:17:31;;;;;;;17.65;13.15;;;;;;;5.17;79.25;97995.06;4986250;28;102817;-64
2024/01/07 01:20:05;;;;;;;16.95;11.93;;;;;;;5.07;79.35;98006.47;5002696;28;102547;-63
2024/01/07 01:22:35;;;;;;;15.52;11.43;;;;;;;4.93;79.81;98007.00;5001311;28;103393;-64
2024/01/07 01:25:04;;;;;;;21.30;13.60;;;;;;;5.05;79.52;98008.41;4983457;28;104024;-64
2024/01/07 01:27:32;;;;;;;14.73;10.27;;;;;;;5.07;79.11;98016.97;5005525;28;102625;-64
2024/01/07 01:30:00;;;;;;;15.05;11.38;;;;;;;5.03;79.53;98010.38;4981401;28;103210;-63
2024/01/07 01:32:30;;;;;;;21.17;13.35;;;;;;;4.86;79.76;98012.00;4987131;28;105152;-64
2024/01/07 01:34:58;;;;;;;22.25;13.25;;;;;;;4.95;79.81;98015.53;4991795;28;103179;-64
2024/01/07 01:37:26;;;;;;;17.52;11.15;;;;;;;4.86;80.50;98014.63;4987566;28;102707;-64
2024/01/07 01:39:56;;;;;;;22.48;14.50;;;;;;;4.91;80.17;98014.16;5003086;28;104306;-63
2024/01/07 01:42:25;;;;;;;20.80;13.63;;;;;;;4.93;80.02;98014.84;4994538;28;102972;-64
2024/01/07 01:44:56;;;;;;;17.15;12.10;;;;;;;5.05;79.61;98018.91;4996374;28;104125;-64
2024/01/07 01:47:24;;;;;;;22.27;14.00;;;;;;;4.94;80.27;98012.09;5001201;28;103494;-64
2024/01/07 01:49:53;;;;;;;28.00;20.23;;;;;;;4.82;80.64;98008.84;4986668;28;103931;-63
2024/01/07 01:52:22;;;;;;;22.88;16.48;;;;;;;4.87;80.44;98020.69;5006557;28;104088;-64
2024/01/07 01:54:50;;;;;;;24.55;17.23;;;;;;;4.90;80.41;98023.00;4981790;28;103182;-63
2024/01/07 01:57:22;;;;;;;20.88;16.08;;;;;;;4.81;80.71;98017.69;5003232;28;103965;-63
2024/01/07 01:59:51;;;;;;;22.45;16.48;;;;;;;4.92;80.68;98016.63;4999417;28;104345;-63
2024/01/07 02:02:19;;;;;;;24.48;18.05;;;;;;;4.76;80.85;98016.50;4999850;28;104405;-74
2024/01/07 02:04:47;;;;;;;22.02;14.52;;;;;;;4.95;80.88;98012.91;4987453;28;104331;-73
2024/01/07 02:07:15;;;;;;;27.50;17.63;;;;;;;4.91;80.31;98015.00;4987391;28;102693;-74
2024/01/07 02:09:47;;;;;;;19.23;12.60;;;;;;;5.01;80.48;98014.94;5001071;28;103567;-73
2024/01/07 02:12:21;;;;;;;27.95;17.58;;;;;;;4.95;80.29;98021.63;4996754;28;103383;-74
2024/01/07 02:14:49;;;;;;;23.80;16.30;;;;;;;4.95;80.19;98018.13;5004872;28;103242;-73
2024/01/07 02:17:22;;;;;;;22.75;14.32;;;;;;;5.03;79.56;98018.25;4996217;28;102788;-72
2024/01/07 02:19:50;;;;;;;28.38;18.38;;;;;;;4.90;79.81;98020.38;5001556;28;104075;-73
2024/01/07 02:22:19;;;;;;;23.88;16.23;;;;;;;4.76;80.76;98019.94;4988756;28;104210;-74
2024/01/07 02:24:48;;;;;;;23.25;16.25;;;;;;;4.70;81.26;98020.50;5010231;28;103279;-74
2024/01/07 02:27:16;;;;;;;25.92;17.17;;;;;;;4.63;81.31;98019.47;5001558;28;102539;-74
2024/01/07 02:29:44;;;;;;;27.17;18.20;;;;;;;4.61;81.44;98026.63;4995232;28;104125;-74
2024/01/07 02:32:13;;;;;;;28.13;15.90;;;;;;;4.63;81.71;98022.09;5005971;28;104250;-74
2024/01/07 02:34:40;;;;;;;22.85;14.52;;;;;;;4.77;81.18;98016.34;4988424;28;104250;-74
2024/01/07 02:37:09;;;;;;;22.90;14.80;;;;;;;4.78;80.86;98023.25;5012069;28;102564;-73
2024/01/07 02:39:37;;;;;;;20.92;14.10;;;;;;;4.84;80.69;98018.38;5008270;28;104193;-73
2024/01/07 02:42:06;;;;;;;25.40;17.60;;;;;;;4.73;80.70;98024.63;4993961;28;103359;-74
2024/01/07 02:44:34;;;;;;;26.27;17.33;;;;;;;4.49;81.68;98023.38;5009228;28;103281;-73
2024/01/07 02:47:28;;;;;;;22.55;15.57;;;;;;;4.61;81.20;98019.63;4986075;28;102838;-74
2024/01/07 02:49:56;;;;;;;27.83;17.08;;;;;;;4.40;82.07;98019.88;4989142;28;104271;-73
2024/01/07 02:52:24;;;;;;;25.45;17.30;;;;;;;4.51;81.64;98016.22;5006311;28;103238;-73
2024/01/07 02:54:52;;;;;;;27.02;17.00;;;;;;;4.52;81.38;98017.03;4983428;28;103270;-74
2024/01/07 02:57:21;;;;;;;26.80;17.42;;;;;;;4.53;81.69;98023.94;4989851;28;102595;-73
2024/01/07 02:59:57;;;;;;;25.00;17.08;;;;;;;4.65;80.83;98028.00;5010465;28;104786;-74
2024/01/07 03:03:27;;;;;;;23.17;15.13;;;;;;;4.42;81.33;98025.78;4999764;28;104484;-74
2024/01/07 03:05:55;;;;;;;21.95;14.57;;;;;;;4.60;81.22;98027.63;5008852;28;103035;-74
2024/01/07 03:08:48;;;;;;;24.42;15.93;;;;;;;4.56;81.10;98018.38;5004671;28;102600;-74
2024/01/07 03:16:50;;;;;;;20.38;15.15;;;;;;;4.59;81.05;98033.84;5007531;28;103788;-73
2024/01/07 03:20:00;;;;;;;21.13;13.88;;;;;;;4.56;81.10;98034.13;5004645;27;103248;-73
2024/01/07 03:25:19;;;;;;;24.73;15.73;;;;;;;4.43;81.31;98035.28;5034905;27;102785;-73
2024/01/07 03:28:00;;;;;;;19.00;14.02;;;;;;;4.36;81.57;98030.78;5012119;27;103209;-73
2024/01/07 03:30:28;;;;;;;20.92;14.88;;;;;;;4.32;81.83;98033.69;4988722;27;103474;-72
2024/01/07 03:32:57;;;;;;;21.85;14.48;;;;;;;4.52;81.27;98040.63;5014903;27;103473;-72
2024/01/07 03:35:34;;;;;;;21.02;14.23;;;;;;;4.50;81.16;98046.03;5025606;27;102787;-72
2024/01/07 03:38:03;;;;;;;22.67;15.93;;;;;;;4.62;80.84;98044.03;5021360;27;103298;-72
2024/01/07 03:40:33;;;;;;;23.75;15.38;;;;;;;4.63;80.29;98037.81;5026435;27;103205;-72
2024/01/07 03:43:03;;;;;;;21.48;15.40;;;;;;;4.39;81.32;98039.19;5018221;28;104887;-72
2024/01/07 03:45:32;;;;;;;23.48;16.38;;;;;;;4.28;81.58;98048.06;5029421;27;103324;-73
2024/01/07 03:48:00;;;;;;;22.77;15.27;;;;;;;4.25;81.38;98047.53;5030807;27;104003;-72
2024/01/07 03:50:28;;;;;;;21.95;14.05;;;;;;;4.30;81.36;98046.13;5012264;27;103346;-72
2024/01/07 03:52:58;;;;;;;23.88;14.68;;;;;;;4.38;80.76;98037.53;5030029;27;103470;-72
2024/01/07 03:55:27;;;;;;;22.98;15.88;;;;;;;4.22;80.92;98047.78;5014230;27;104524;-72
2024/01/07 03:57:55;;;;;;;22.02;15.20;;;;;;;4.10;80.64;98040.13;5001413;27;104799;-71
2024/01/07 04:00:23;;;;;;;22.33;14.95;;;;;;;4.09;81.18;98046.31;5009225;27;103705;-71
2024/01/07 04:02:52;;;;;;;18.10;12.45;;;;;;;4.20;80.92;98044.50;5005661;27;102834;-72
2024/01/07 04:05:20;;;;;;;21.95;14.50;;;;;;;4.19;80.62;98048.09;5029760;27;103101;-71
2024/01/07 04:07:48;;;;;;;18.58;14.30;;;;;;;4.23;81.33;98049.44;5021598;27;103056;-71
2024/01/07 04:10:19;;;;;;;20.80;15.15;;;;;;;4.26;80.60;98050.00;5022287;27;103522;-72
2024/01/07 04:12:47;;;;;;;24.02;15.40;;;;;;;4.23;80.51;98055.53;5002290;27;102635;-72
2024/01/07 04:15:17;;;;;;;18.80;13.63;;;;;;;4.29;80.84;98054.13;5006619;27;102896;-72
2024/01/07 04:17:45;;;;;;;23.20;16.05;;;;;;;4.35;80.16;98057.97;5005127;27;103379;-72
2024/01/07 04:20:16;;;;;;;23.42;15.88;;;;;;;4.22;80.44;98058.28;5009682;27;103403;-72
2024/01/07 04:22:47;;;;;;;22.77;15.90;;;;;;;4.09;81.66;98053.38;5009649;27;103245;-72
2024/01/07 04:25:15;;;;;;;19.55;12.48;;;;;;;4.21;81.18;98061.88;5011576;27;103959;-73
2024/01/07 04:27:45;;;;;;;20.67;14.43;;;;;;;4.05;81.70;98058.06;5032649;27;103292;-72
2024/01/07 04:30:15;;;;;;;22.35;14.48;;;;;;;4.01;81.29;98054.09;5007234;27;103297;-72
2024/01/07 04:32:43;;;;;;;21.42;13.40;;;;;;;4.13;81.26;98059.97;5017854;27;103151;-72
2024/01/07 04:35:12;;;;;;;23.20;14.57;;;;;;;4.00;81.49;98055.03;5002450;27;104510;-72
2024/01/07 04:37:40;;;;;;;20.13;14.43;;;;;;;4.13;81.23;98063.41;5021746;27;104911;-72
2024/01/07 04:40:10;;;;;;;17.35;12.55;;;;;;;4.27;80.79;98069.16;5013276;27;103506;-72
2024/01/07 04:42:39;;;;;;;20.15;13.25;;;;;;;4.24;80.12;98072.06;4998549;27;106576;-72
2024/01/07 04:45:11;;;;;;;18.35;11.80;;;;;;;4.27;80.83;98084.88;5005253;27;103434;-72
2024/01/07 04:47:39;;;;;;;21.75;13.50;;;;;;;4.23;80.44;98080.91;5011823;27;104527;-72
2024/01/07 04:50:08;;;;;;;17.35;11.73;;;;;;;4.22;80.64;98079.25;5019788;27;103294;-72
2024/01/07 04:52:37;;;;;;;21.63;12.35;;;;;;;4.11;81.05;98078.47;5006204;27;103281;-72
2024/01/07 04:55:06;;;;;;;19.10;13.02;;;;;;;4.22;80.39;98076.63;5002483;27;103178;-72
2024/01/07 04:57:34;;;;;;;18.52;12.05;;;;;;;4.04;81.31;98079.19;5039057;27;103968;-72
2024/01/07 05:00:04;;;;;;;18.88;12.32;;;;;;;4.08;81.02;98080.53;5022728;27;103259;-72
2024/01/07 05:02:34;;;;;;;18.60;11.88;;;;;;;4.04;81.31;98087.84;5025287;27;103311;-72
2024/01/07 05:05:03;;;;;;;21.52;13.55;;;;;;;3.94;81.04;98093.13;5003787;27;103238;-73
2024/01/07 05:07:33;;;;;;;18.73;11.57;;;;;;;3.98;80.78;98091.88;4989508;27;107872;-73
2024/01/07 05:10:03;;;;;;;17.52;12.15;;;;;;;4.10;80.60;98092.53;5006459;27;103189;-72
2024/01/07 05:12:32;;;;;;;18.58;12.48;;;;;;;3.91;81.56;98092.59;5004150;27;102886;-72
2024/01/07 05:15:01;;;;;;;17.52;12.48;;;;;;;4.02;81.30;98097.63;5011082;27;103046;-72
2024/01/07 05:17:30;;;;;;;19.30;12.43;;;;;;;3.95;81.32;98093.94;5018008;27;104996;-72
2024/01/07 05:20:00;;;;;;;18.13;11.60;;;;;;;4.04;81.37;98093.09;5003397;27;103149;-72
2024/01/07 05:22:28;;;;;;;18.27;11.82;;;;;;;4.03;81.07;98090.63;5025323;27;103037;-73
2024/01/07 05:24:58;;;;;;;19.25;12.13;;;;;;;3.99;81.63;98111.03;5029464;27;103089;-72
2024/01/07 05:27:26;;;;;;;18.58;11.85;;;;;;;3.77;81.78;98102.53;5016727;27;103224;-72
2024/01/07 05:29:55;;;;;;;16.05;10.75;;;;;;;3.98;81.39;98104.97;5007685;27;103299;-73
2024/01/07 05:32:24;;;;;;;15.43;10.85;;;;;;;4.00;81.24;98102.22;5005640;27;103460;-73
2024/01/07 05:34:52;;;;;;;13.70;9.38;;;;;;;4.04;81.36;98103.56;5027074;27;102935;-73
2024/01/07 05:37:22;;;;;;;15.43;10.55;;;;;;;4.05;81.09;98110.47;5027664;27;104280;-73
2024/01/07 05:39:50;;;;;;;18.35;12.35;;;;;;;3.99;81.24;98111.03;5024225;27;103918;-72
2024/01/07 05:42:18;;;;;;;16.25;10.75;;;;;;;4.02;80.98;98109.94;5005034;27;103706;-73
2024/01/07 05:44:47;;;;;;;18.52;11.57;;;;;;;3.98;81.49;98109.38;5008972;27;102958;-73
2024/01/07 05:47:16;;;;;;;17.83;12.40;;;;;;;3.92;81.01;98115.19;5008919;27;103134;-72
2024/01/07 05:49:45;;;;;;;14.80;10.85;;;;;;;3.87;81.13;98114.78;5010254;27;103247;-72
2024/01/07 05:52:13;;;;;;;18.95;12.18;;;;;;;3.98;80.99;98119.84;5013101;27;103113;-71
2024/01/07 05:54:44;;;;;;;15.57;10.90;;;;;;;4.00;80.92;98122.38;4991917;27;102968;-73
2024/01/07 05:57:14;;;;;;;14.65;10.38;;;;;;;4.01;81.00;98130.06;5010564;27;104114;-72
2024/01/07 05:59:45;;;;;;;15.90;10.90;;;;;;;4.00;80.71;98125.78;5025389;27;104615;-72
2024/01/07 06:02:16;;;;;;;17.00;11.43;;;;;;;4.00;80.80;98130.22;4988339;27;102726;-71
2024/01/07 06:04:46;;;;;;;16.55;11.27;;;;;;;4.05;80.93;98130.59;5003030;27;104080;-71
2024/01/07 06:07:15;;;;;;;17.13;11.93;;;;;;;4.00;80.54;98132.84;5000371;27;103195;-72
2024/01/07 06:09:44;;;;;;;16.42;11.20;;;;;;;3.91;81.20;98134.50;4991315;27;103268;-72
2024/01/07 06:12:14;;;;;;;18.38;12.02;;;;;;;3.85;81.34;98133.25;5018979;27;103326;-72
2024/01/07 06:14:42;;;;;;;16.00;11.05;;;;;;;3.94;80.87;98142.06;5036056;27;102819;-72
2024/01/07 06:17:11;;;;;;;15.80;10.85;;;;;;;3.92;80.86;98144.03;5023023;27;102746;-72
2024/01/07 06:19:39;;;;;;;15.82;11.68;;;;;;;3.74;80.93;98144.69;5023899;27;103715;-73
2024/01/07 06:22:07;;;;;;;15.95;11.00;;;;;;;3.87;80.98;98146.22;4999899;27;103057;-72
2024/01/07 06:24:36;;;;;;;16.33;11.52;;;;;;;3.63;81.60;98142.25;5017210;27;103995;-73
2024/01/07 06:27:06;;;;;;;15.77;10.45;;;;;;;3.70;81.15;98147.75;5003838;27;103478;-73
2024/01/07 06:29:35;;;;;;;15.25;10.43;;;;;;;3.73;80.87;98148.28;5019247;27;104535;-72
2024/01/07 06:32:04;;;;;;;18.20;11.52;;;;;;;3.63;81.02;98153.53;5003123;27;103281;-73
2024/01/07 06:34:33;;;;;;;17.13;11.35;;;;;;;3.71;80.18;98154.63;5011378;28;103109;-72
2024/01/07 06:37:05;;;;;;;13.07;9.82;;;;;;;3.85;80.38;98161.25;5007094;27;104785;-72
2024/01/07 06:39:34;;;;;;;17.73;10.10;;;;;;;3.73;79.68;98158.75;5009179;27;103263;-72
2024/01/07 06:42:07;;;;;;;14.48;10.63;;;;;;;3.77;79.60;98164.56;5009845;27;104303;-73
2024/01/07 06:44:35;;;;;;;15.57;10.80;;;;;;;3.85;78.67;98174.34;5021114;27;105618;-72
2024/01/07 06:47:04;;;;;;;16.27;10.75;;;;;;;3.62;78.58;98174.63;5013238;27;103169;-72
2024/01/07 06:49:32;;;;;;;13.70;10.27;;;;;;;3.68;78.44;98176.66;5018984;27;103417;-72
2024/01/07 06:51:59;;;;;;;13.23;9.52;;;;;;;3.67;77.85;98175.03;5010850;27;102806;-72
2024/01/07 06:54:29;;;;;;;13.52;10.13;;;;;;;3.50;77.58;98181.78;5002135;27;103168;-73
2024/01/07 06:56:58;;;;;;;11.57;8.68;;;;;;;3.44;76.54;98190.16;4989595;27;103849;-72
2024/01/07 06:59:28;;;;;;;11.70;8.82;;;;;;;3.59;76.89;98188.81;5004607;27;104275;-72
2024/01/07 07:01:56;;;;;;;13.32;9.77;;;;;;;3.68;76.64;98188.94;5024117;27;103140;-72
2024/01/07 07:04:25;;;;;;;11.35;8.75;;;;;;;3.43;75.69;98189.34;5010440;27;103197;-75
2024/01/07 07:06:53;;;;;;;10.45;8.15;;;;;;;3.28;75.78;98191.50;5006164;27;104729;-74
2024/01/07 07:09:23;;;;;;;12.68;8.88;;;;;;;3.43;75.53;98196.34;5007169;27;104956;-74
2024/01/07 07:11:51;;;;;;;12.77;8.63;;;;;;;3.39;75.33;98202.81;5001939;27;103315;-73
2024/01/07 07:14:19;;;;;;;11.88;8.10;;;;;;;3.41;74.96;98199.13;4980425;27;104582;-72
2024/01/07 07:16:50;;;;;;;10.55;7.78;;;;;;;3.29;74.57;98205.44;5022596;27;103106;-75
2024/01/07 07:19:18;;;;;;;11.23;7.97;;;;;;;3.37;74.49;98208.22;5023187;27;106551;-76
2024/01/07 07:21:47;;;;;;;10.32;7.90;;;;;;;3.27;74.26;98213.41;5032533;27;103303;-75
2024/01/07 07:24:15;;;;;;;9.80;7.15;;;;;;;3.31;74.34;98212.19;5003720;27;102884;-75
2024/01/07 07:26:43;;;;;;;10.55;7.07;;;;;;;3.15;73.71;98224.94;5020835;27;103286;-79
2024/01/07 07:29:20;;;;;;;9.10;6.82;;;;;;;3.33;74.18;98235.63;5024463;27;103282;-77
2024/01/07 07:31:50;;;;;;;10.38;7.85;;;;;;;3.24;74.03;98232.00;5023792;27;103114;-78
2024/01/07 07:34:19;;;;;;;8.75;6.65;;;;;;;3.05;73.78;98234.53;5000304;27;103259;-75
2024/01/07 07:36:47;;;;;;;10.05;7.72;;;;;;;3.12;74.13;98241.75;5020101;27;103253;-75
2024/01/07 07:39:20;;;;;;;9.98;7.53;;;;;;;3.10;73.63;98243.66;5009366;27;103173;-80
2024/01/07 07:42:18;;;;;;;9.40;6.57;;;;;;;3.18;73.58;98252.63;5007838;27;103668;-75
2024/01/07 07:44:49;;;;;;;8.60;6.43;;;;;;;3.14;73.54;98254.69;4996385;27;103210;-72
2024/01/07 07:47:20;;;;;;;9.48;6.47;;;;;;;3.11;73.97;98250.53;4991180;27;103319;-74
2024/01/07 07:50:05;;;;;;;8.68;6.38;;;;;;;3.08;73.51;98258.66;5013822;27;105162;-72
2024/01/07 07:53:28;;;;;;;9.57;6.18;;;;;;;2.98;73.25;98253.38;4997910;27;104567;-74
2024/01/07 07:56:11;;;;;;;9.80;6.85;;;;;;;3.04;73.39;98261.66;5011622;27;103115;-74
2024/01/07 07:58:41;;;;;;;10.60;7.03;;;;;;;3.10;74.38;98263.75;5003560;27;103548;-74
2024/01/07 08:01:10;;;;;;;8.95;6.82;;;;;;;3.06;74.34;98268.41;5022944;27;103284;-73
2024/01/07 08:03:51;;;;;;;9.70;7.00;;;;;;;3.09;73.94;98268.19;4998380;27;103998;-74
2024/01/07 08:06:52;;;;;;;8.20;6.07;;;;;;;3.03;73.76;98268.69;5012562;27;104012;-72
2024/01/07 08:10:57;;;;;;;9.65;6.10;;;;;;;2.96;73.81;98270.16;5019928;27;105678;-73
2024/01/07 08:13:30;;;;;;;9.98;6.75;;;;;;;3.04;73.44;98270.34;5004147;27;103376;-75
2024/01/07 08:16:15;;;;;;;7.82;6.07;;;;;;;2.99;73.42;98280.38;5024010;27;103895;-76
2024/01/07 08:26:54;;;;;;;9.60;6.90;;;;;;;2.94;73.21;98290.41;5032841;22;104102;-64
2024/01/07 08:30:06;;;;;;;9.73;6.30;;;;;;;2.88;73.11;98286.50;5023852;27;102706;-63
2024/01/07 08:32:58;;;;;;;10.07;7.03;;;;;;;2.86;73.47;98295.47;4966880;27;103266;-63
2024/01/07 08:36:04;;;;;;;10.65;6.85;;;;;;;2.93;73.10;98292.19;4941004;27;104150;-63
2024/01/07 08:38:52;;;;;;;8.73;6.75;;;;;;;2.91;73.54;98293.25;4968804;27;102732;-64
2024/01/07 08:42:43;;;;;;;10.27;6.57;;;;;;;2.76;74.02;98295.38;4999511;27;102986;-64
2024/01/07 08:55:49;;;;;;;7.22;4.80;;;;;;;2.90;71.90;98292.44;4934301;28;102603;-64
2024/01/07 08:59:15;;;;;;;6.97;4.82;;;;;;;2.82;71.15;98308.78;4920864;28;103037;-63
2024/01/07 09:01:56;;;;;;;7.00;5.00;;;;;;;2.76;70.64;98317.13;4923488;28;103080;-64
2024/01/07 09:04:43;;;;;;;7.20;4.55;;;;;;;2.89;69.52;98316.13;4920825;28;103095;-65
2024/01/07 09:07:16;;;;;;;6.38;4.75;;;;;;;2.84;70.35;98319.09;4930752;28;104947;-63
2024/01/07 09:09:51;;;;;;;7.72;4.95;;;;;;;2.87;69.79;98325.88;4934961;28;104013;-63
2024/01/07 09:34:14;;;;;;;8.88;5.60;;;;;;;2.90;70.16;98354.41;4969196;28;103145;-63
2024/01/07 09:36:42;;;;;;;6.63;4.82;;;;;;;2.82;69.19;98365.50;4950105;28;102884;-72
2024/01/07 09:39:20;;;;;;;7.00;4.78;;;;;;;2.70;68.21;98353.44;4902694;28;102920;-72
2024/01/07 09:41:49;;;;;;;7.95;4.25;;;;;;;2.68;68.65;98361.41;4901309;28;104645;-72
2024/01/07 09:44:19;;;;;;;6.55;4.72;;;;;;;2.68;69.51;98365.81;4901036;28;103112;-72
2024/01/07 09:46:51;;;;;;;6.70;4.95;;;;;;;2.67;69.92;98359.75;4905457;28;103074;-72
2024/01/07 09:49:27;;;;;;;6.95;4.75;;;;;;;2.58;69.80;98365.72;4898664;28;104157;-72
2024/01/07 09:52:01;;;;;;;7.55;5.13;;;;;;;2.55;70.11;98371.22;4912674;28;103247;-71
2024/01/07 09:54:34;;;;;;;6.47;4.85;;;;;;;2.37;70.26;98360.47;4899234;28;103108;-72
2024/01/07 09:57:04;;;;;;;9.25;6.38;;;;;;;2.54;70.61;98359.09;4907197;28;103135;-72
2024/01/07 09:59:36;;;;;;;8.20;5.60;;;;;;;2.46;70.52;98363.19;4898664;28;102819;-64
2024/01/07 10:02:06;;;;;;;8.82;5.55;;;;;;;2.65;70.56;98354.63;4894862;28;104323;-73
2024/01/07 10:04:35;;;;;;;8.70;6.10;;;;;;;2.65;70.71;98357.25;4890327;28;103513;-74
2024/01/07 10:07:09;;;;;;;7.90;6.03;;;;;;;2.65;71.20;98359.06;4892128;28;102766;-73
2024/01/07 10:09:42;;;;;;;8.43;5.90;;;;;;;2.60;70.98;98354.19;4894021;28;103344;-74
2024/01/07 10:12:12;;;;;;;8.02;5.55;;;;;;;2.40;70.33;98352.41;4890105;28;104310;-74
2024/01/07 10:14:41;;;;;;;7.00;5.05;;;;;;;2.36;70.27;98351.81;4890119;28;103796;-73
2024/01/07 10:17:17;;;;;;;8.05;5.30;;;;;;;2.51;69.18;98359.34;4917869;27;102923;-73
2024/01/07 10:19:46;;;;;;;8.85;4.85;;;;;;;2.26;69.13;98361.34;4897113;28;104387;-73
2024/01/07 10:22:16;;;;;;;7.10;4.88;;;;;;;2.40;69.65;98357.63;4886923;28;103215;-73
2024/01/07 10:24:48;;;;;;;8.27;5.57;;;;;;;2.41;70.05;98364.47;4885516;28;102662;-73
2024/01/07 10:27:17;;;;;;;7.82;5.25;;;;;;;2.26;69.35;98367.38;4901716;28;102871;-74
2024/01/07 10:29:49;;;;;;;9.45;5.35;;;;;;;2.51;70.04;98375.03;4887351;28;102840;-74
2024/01/07 10:32:20;;;;;;;6.35;4.80;;;;;;;2.47;69.86;98375.28;4886394;28;103332;-73
2024/01/07 10:34:49;;;;;;;8.18;5.60;;;;;;;2.46;69.78;98373.63;4891109;28;103981;-73
2024/01/07 10:37:17;;;;;;;8.98;6.18;;;;;;;2.43;69.04;98375.66;4888929;28;102819;-66
2024/01/07 10:39:49;;;;;;;7.50;5.30;;;;;;;2.41;68.66;98381.00;4886405;28;104223;-65
2024/01/07 10:42:19;;;;;;;8.90;5.90;;;;;;;2.50;69.71;98384.66;4899583;28;103329;-70
2024/01/07 10:44:48;;;;;;;7.18;5.38;;;;;;;2.52;69.67;98381.94;4895507;28;104161;-72
2024/01/07 10:47:21;;;;;;;7.95;5.50;;;;;;;2.15;68.45;98376.09;4888228;28;102593;-73
2024/01/07 10:49:52;;;;;;;7.60;5.32;;;;;;;2.13;67.89;98383.22;4887960;28;103975;-72
2024/01/07 10:52:24;;;;;;;9.95;6.35;;;;;;;2.17;68.82;98382.97;4889068;28;104599;-73
2024/01/07 10:54:57;;;;;;;8.48;5.75;;;;;;;2.45;68.52;98377.19;4888795;28;103187;-65
2024/01/07 10:57:35;;;;;;;7.25;5.43;;;;;;;2.29;68.51;98388.06;4892551;28;102770;-65
2024/01/07 11:00:07;;;;;;;10.57;6.72;;;;;;;2.39;69.04;98382.09;4887574;28;104076;-65
2024/01/07 11:02:42;;;;;;;7.93;5.70;;;;;;;2.19;68.24;98375.84;4890520;28;103319;-75
2024/01/07 11:05:24;;;;;;;7.30;5.43;;;;;;;2.35;68.53;98378.88;4891682;28;104473;-65
2024/01/07 11:08:02;;;;;;;7.22;5.20;;;;;;;2.22;68.62;98388.69;4889947;28;103062;-65
2024/01/07 11:10:39;;;;;;;7.55;5.35;;;;;;;2.26;68.46;98382.25;4882895;28;104160;-66
2024/01/07 11:13:40;;;;;;;8.80;5.18;;;;;;;2.31;69.10;98386.13;4885693;28;104144;-65
2024/01/07 11:16:10;;;;;;;7.90;5.15;;;;;;;2.40;67.99;98383.75;4892006;28;103298;-65
2024/01/07 11:18:40;;;;;;;6.80;5.53;;;;;;;2.36;68.51;98393.63;4886863;28;102765;-65
2024/01/07 11:21:08;;;;;;;8.15;5.55;;;;;;;2.22;68.41;98386.06;4889175;28;102679;-65
2024/01/07 11:23:43;;;;;;;8.63;5.22;;;;;;;2.26;68.66;98390.91;4887923;28;103290;-66
2024/01/07 11:26:13;;;;;;;8.13;6.45;;;;;;;2.26;69.02;98383.06;4886044;28;102732;-65
2024/01/07 11:28:51;;;;;;;9.02;6.07;;;;;;;2.33;69.23;98393.84;4901693;28;102752;-65
2024/01/07 11:31:21;;;;;;;7.13;5.70;;;;;;;2.08;69.19;98385.34;4896368;28;104152;-66
2024/01/07 11:33:51;;;;;;;7.15;5.22;;;;;;;2.12;69.16;98386.78;4887201;28;103185;-65
2024/01/07 11:36:19;;;;;;;8.80;6.25;;;;;;;2.19;69.13;98391.50;4886979;28;103197;-65
2024/01/07 11:38:49;;;;;;;9.20;6.18;;;;;;;2.01;69.40;98392.03;4889602;28;102664;-66
2024/01/07 11:41:27;;;;;;;7.63;6.30;;;;;;;2.27;69.63;98391.75;4889195;28;104034;-65
2024/01/07 11:43:57;;;;;;;8.00;5.57;;;;;;;2.08;69.29;98394.97;4887066;28;103418;-65
2024/01/07 11:46:28;;;;;;;9.43;5.97;;;;;;;2.01;69.29;98391.22;4890921;28;103285;-65
2024/01/07 11:48:59;;;;;;;7.28;5.38;;;;;;;2.09;69.06;98394.03;4888535;28;103066;-65
2024/01/07 11:51:28;;;;;;;7.63;5.60;;;;;;;2.04;69.81;98399.63;4907923;27;102721;-65
2024/01/07 11:53:56;;;;;;;7.90;5.85;;;;;;;2.18;69.09;98395.09;4895022;28;103242;-65
2024/01/07 11:56:26;;;;;;;7.90;6.07;;;;;;;1.89;69.66;98403.47;4889850;28;103306;-65
2024/01/07 11:58:56;;;;;;;7.70;6.13;;;;;;;1.78;69.29;98410.34;4888199;28;102796;-64
2024/01/07 12:01:26;;;;;;;9.20;6.38;;;;;;;1.87;69.53;98402.75;4887423;28;104093;-64
2024/01/07 12:03:55;;;;;;;8.63;6.38;;;;;;;1.94;69.98;98399.53;4885929;28;104242;-65
2024/01/07 12:06:24;;;;;;;8.95;6.38;;;;;;;1.82;70.28;98406.53;4888925;28;103758;-65
2024/01/07 12:08:53;;;;;;;9.82;6.60;;;;;;;1.86;70.39;98407.13;4889841;28;102861;-65
2024/01/07 12:11:21;;;;;;;8.73;6.43;;;;;;;2.12;70.39;98410.31;4911834;28;103083;-64
2024/01/07 12:13:51;;;;;;;9.07;6.15;;;;;;;1.93;69.74;98408.31;4935992;27;104302;-65
2024/01/07 12:16:20;;;;;;;8.82;6.22;;;;;;;2.06;70.10;98407.34;4916684;28;103255;-65
2024/01/07 12:18:48;;;;;;;9.38;6.65;;;;;;;1.77;71.07;98408.69;4888280;28;102684;-65
2024/01/07 12:21:20;;;;;;;8.95;6.85;;;;;;;1.72;71.34;98410.00;4888998;28;102691;-65
2024/01/07 12:23:50;;;;;;;9.63;7.10;;;;;;;1.75;71.18;98418.41;4886218;28;103858;-65
2024/01/07 12:26:21;;;;;;;10.07;7.13;;;;;;;1.68;71.49;98414.63;4886578;28;103227;-65
2024/01/07 12:28:57;;;;;;;10.30;6.97;;;;;;;1.70;71.95;98419.72;4885636;28;102781;-64
2024/01/07 12:31:25;;;;;;;10.82;8.07;;;;;;;1.66;72.02;98416.50;4885331;28;103941;-64
2024/01/07 12:33:54;;;;;;;10.07;7.40;;;;;;;1.66;71.71;98416.50;4885524;28;104319;-64
2024/01/07 12:36:23;;;;;;;9.60;6.95;;;;;;;1.67;72.10;98423.38;4884936;28;103353;-65